createdAt,value
2017-08-17T00:01:01.236Z,33.77
2017-08-17T00:03:27.354Z,23.50
2017-08-17T00:05:53.486Z,28.47
2017-08-17T00:08:19.599Z,31.80
2017-08-17T00:10:45.795Z,21.70
2017-08-17T00:13:11.907Z,27.67
2017-08-17T00:15:38.063Z,25.70
2017-08-17T00:18:04.174Z,24.67
2017-08-17T00:20:30.310Z,29.87
2017-08-17T00:22:56.414Z,28.53
2017-08-17T00:25:22.531Z,26.70
2017-08-17T00:27:48.650Z,32.00
2017-08-17T00:30:14.797Z,37.70
2017-08-17T00:32:40.950Z,24.27
2017-08-17T00:35:07.098Z,23.80
2017-08-17T00:37:33.221Z,33.80
2017-08-17T00:39:59.339Z,22.33
2017-08-17T00:42:25.490Z,23.60
2017-08-17T00:44:51.614Z,25.97
2017-08-17T00:47:17.766Z,28.53
2017-08-17T00:49:43.890Z,24.63
2017-08-17T00:52:10.035Z,24.13
2017-08-17T00:54:36.160Z,25.70
2017-08-17T00:57:02.295Z,30.47
2017-08-17T00:59:28.446Z,21.23
2017-08-17T01:01:54.606Z,22.97
2017-08-17T01:04:20.768Z,29.97
2017-08-17T01:06:46.947Z,25.70
2017-08-17T01:09:13.075Z,23.40
2017-08-17T01:11:39.222Z,28.53
2017-08-17T01:14:05.354Z,25.80
2017-08-17T01:16:31.494Z,25.60
2017-08-17T01:18:57.630Z,26.03
2017-08-17T01:21:23.827Z,21.13
2017-08-17T01:23:50.015Z,22.93
2017-08-17T01:26:16.162Z,21.47
2017-08-17T01:28:42.302Z,17.70
2017-08-17T01:31:08.442Z,22.07
2017-08-17T01:33:34.595Z,25.93
2017-08-17T01:36:00.729Z,21.37
2017-08-17T01:38:26.958Z,22.83
2017-08-17T01:40:53.125Z,22.03
2017-08-17T01:43:19.339Z,22.33
2017-08-17T01:45:45.481Z,24.57
2017-08-17T01:48:11.679Z,23.40
2017-08-17T01:50:37.847Z,33.40
2017-08-17T01:53:04.041Z,24.23
2017-08-17T01:55:30.199Z,34.00
2017-08-17T01:57:56.354Z,21.07
2017-08-17T02:00:22.554Z,24.70
2017-08-17T02:02:48.707Z,27.30
2017-08-17T02:05:14.848Z,24.97
2017-08-17T02:07:41.002Z,21.60
2017-08-17T02:10:07.143Z,39.20
2017-08-17T02:12:33.282Z,26.93
2017-08-17T02:14:59.439Z,21.67
2017-08-17T02:17:25.592Z,24.10
2017-08-17T02:19:51.736Z,23.70
2017-08-17T02:22:17.858Z,28.53
2017-08-17T02:24:44.011Z,26.40
2017-08-17T02:27:10.143Z,21.93
2017-08-17T02:29:36.312Z,27.90
2017-08-17T02:32:02.490Z,27.43
2017-08-17T02:34:28.661Z,20.60
2017-08-17T02:36:54.823Z,26.33
2017-08-17T02:39:21.003Z,30.37
2017-08-17T02:41:47.141Z,24.30
2017-08-17T02:44:13.267Z,23.00
2017-08-17T02:46:39.418Z,25.87
2017-08-17T02:49:05.563Z,22.20
2017-08-17T02:51:31.706Z,37.03
2017-08-17T02:53:57.823Z,23.67
2017-08-17T02:56:23.962Z,24.10
2017-08-17T02:58:50.087Z,23.27
2017-08-17T03:01:16.255Z,21.50
2017-08-17T03:03:42.390Z,25.97
2017-08-17T03:06:08.527Z,21.87
2017-08-17T03:08:34.651Z,26.40
2017-08-17T03:11:00.774Z,30.07
2017-08-17T03:13:26.940Z,31.00
2017-08-17T03:15:53.124Z,25.77
2017-08-17T03:18:19.283Z,22.20
2017-08-17T03:20:45.410Z,31.20
2017-08-17T03:23:11.562Z,28.93
2017-08-17T03:25:37.699Z,24.20
2017-08-17T03:28:03.838Z,28.90
2017-08-17T03:30:29.969Z,28.40
2017-08-17T03:32:56.131Z,26.20
2017-08-17T03:35:22.261Z,21.87
2017-08-17T03:37:48.431Z,21.13
2017-08-17T03:40:14.563Z,28.00
2017-08-17T03:42:40.743Z,29.67
2017-08-17T03:45:06.903Z,28.57
2017-08-17T03:47:33.051Z,28.13
2017-08-17T03:49:59.191Z,28.03
2017-08-17T03:52:25.334Z,26.57
2017-08-17T03:54:51.492Z,28.23
2017-08-17T03:57:17.619Z,29.67
2017-08-17T03:59:43.799Z,21.67
2017-08-17T04:02:09.945Z,23.47
2017-08-17T04:04:36.096Z,25.77
2017-08-17T04:07:02.235Z,30.13
2017-08-17T04:09:28.382Z,26.80
2017-08-17T04:11:54.534Z,22.27
2017-08-17T04:14:20.689Z,25.30
2017-08-17T04:16:46.823Z,30.50
2017-08-17T04:19:13.050Z,22.60
2017-08-17T04:21:39.182Z,22.00
2017-08-17T04:24:05.310Z,28.93
2017-08-17T04:26:31.451Z,21.67
2017-08-17T04:28:57.577Z,29.00
2017-08-17T04:31:23.726Z,24.00
2017-08-17T04:33:49.880Z,26.90
2017-08-17T04:36:16.059Z,21.97
2017-08-17T04:38:42.195Z,22.30
2017-08-17T04:41:08.331Z,20.23
2017-08-17T04:43:34.491Z,20.57
2017-08-17T04:46:00.689Z,23.90
2017-08-17T04:48:26.811Z,24.97
2017-08-17T04:50:52.958Z,30.13
2017-08-17T04:53:19.090Z,22.27
2017-08-17T04:55:45.265Z,23.60
2017-08-17T04:58:33.602Z,22.30
2017-08-17T05:00:59.862Z,24.83
2017-08-17T05:03:26.004Z,26.57
2017-08-17T05:05:52.143Z,22.73
2017-08-17T05:08:18.300Z,28.20
2017-08-17T05:10:44.426Z,27.53
2017-08-17T05:13:10.590Z,22.47
2017-08-17T05:15:36.727Z,27.33
2017-08-17T05:18:02.873Z,26.63
2017-08-17T05:20:29.034Z,25.20
2017-08-17T05:22:55.178Z,33.83
2017-08-17T05:25:21.311Z,27.73
2017-08-17T05:27:47.536Z,21.93
2017-08-17T05:30:13.673Z,30.63
2017-08-17T05:32:39.814Z,26.70
2017-08-17T05:35:05.974Z,27.77
2017-08-17T05:37:32.127Z,30.30
2017-08-17T05:39:58.283Z,23.07
2017-08-17T05:42:24.433Z,25.40
2017-08-17T05:44:50.587Z,25.13
2017-08-17T05:47:16.771Z,20.07
2017-08-17T05:49:42.979Z,22.10
2017-08-17T05:52:09.127Z,16.23
2017-08-17T05:54:35.250Z,22.10
2017-08-17T05:57:01.382Z,16.73
2017-08-17T05:59:27.510Z,21.00
2017-08-17T06:01:53.626Z,16.10
2017-08-17T06:04:19.771Z,20.53
2017-08-17T06:06:45.882Z,18.30
2017-08-17T06:09:12.074Z,26.13
2017-08-17T06:11:38.236Z,19.37
2017-08-17T06:14:04.352Z,23.73
2017-08-17T06:16:30.479Z,18.50
2017-08-17T06:18:56.597Z,20.30
2017-08-17T06:21:22.791Z,23.17
2017-08-17T06:23:48.943Z,20.27
2017-08-17T06:26:15.115Z,19.90
2017-08-17T06:28:41.230Z,19.50
2017-08-17T06:31:07.393Z,23.03
2017-08-17T06:33:33.559Z,19.40
2017-08-17T06:35:59.726Z,17.70
2017-08-17T06:38:25.904Z,20.80
2017-08-17T06:40:52.039Z,18.03
2017-08-17T06:43:18.200Z,30.00
2017-08-17T06:45:44.359Z,20.80
2017-08-17T06:48:10.483Z,17.27
2017-08-17T06:50:36.594Z,17.90
2017-08-17T06:53:02.784Z,22.47
2017-08-17T06:55:28.927Z,27.67
2017-08-17T06:57:55.062Z,20.10
2017-08-17T07:00:21.206Z,27.57
2017-08-17T07:02:47.347Z,20.43
2017-08-17T07:05:13.503Z,26.33
2017-08-17T07:07:39.646Z,17.70
2017-08-17T07:10:05.788Z,22.00
2017-08-17T07:12:31.957Z,20.27
2017-08-17T07:14:58.102Z,26.37
2017-08-17T07:17:24.287Z,14.20
2017-08-17T07:19:50.423Z,17.57
2017-08-17T07:22:16.594Z,21.83
2017-08-17T07:24:42.710Z,22.63
2017-08-17T07:27:08.849Z,18.70
2017-08-17T07:29:34.982Z,14.10
2017-08-17T07:32:01.146Z,23.27
2017-08-17T07:34:27.305Z,16.87
2017-08-17T07:36:53.476Z,20.53
2017-08-17T07:39:19.651Z,20.33
2017-08-17T07:41:45.783Z,17.40
2017-08-17T07:44:11.934Z,24.00
2017-08-17T07:46:38.059Z,19.50
2017-08-17T07:49:04.202Z,18.57
2017-08-17T07:51:30.426Z,17.40
2017-08-17T07:53:56.586Z,19.00
2017-08-17T07:56:22.745Z,17.23
2017-08-17T07:58:48.906Z,14.60
2017-08-17T08:01:15.047Z,17.43
2017-08-17T08:03:41.247Z,11.13
2017-08-17T08:06:07.384Z,15.93
2017-08-17T08:08:33.523Z,13.23
2017-08-17T08:10:59.675Z,14.87
2017-08-17T08:13:25.855Z,17.47
2017-08-17T08:15:52.062Z,13.93
2017-08-17T08:18:18.192Z,17.40
2017-08-17T08:20:44.389Z,17.80
2017-08-17T08:23:10.571Z,16.23
2017-08-17T08:25:36.746Z,24.73
2017-08-17T08:28:02.935Z,17.37
2017-08-17T08:30:29.187Z,19.57
2017-08-17T08:32:55.301Z,18.03
2017-08-17T08:35:21.455Z,18.77
2017-08-17T08:37:47.622Z,13.40
2017-08-17T08:40:13.785Z,24.00
2017-08-17T08:42:39.932Z,13.70
2017-08-17T08:45:06.106Z,14.20
2017-08-17T08:47:32.258Z,14.03
2017-08-17T08:49:58.391Z,13.43
2017-08-17T08:52:24.589Z,18.03
2017-08-17T08:54:50.789Z,19.83
2017-08-17T08:57:16.950Z,17.60
2017-08-17T08:59:43.099Z,19.27
2017-08-17T09:02:09.282Z,19.10
2017-08-17T09:04:35.422Z,21.20
2017-08-17T09:07:01.576Z,25.07
2017-08-17T09:09:27.726Z,23.53
2017-08-17T09:11:53.916Z,18.87
2017-08-17T09:14:20.075Z,31.33
2017-08-17T09:16:46.269Z,26.60
2017-08-17T09:19:12.434Z,24.47
2017-08-17T09:21:38.724Z,25.73
2017-08-17T09:24:04.860Z,24.03
2017-08-17T09:26:31.026Z,21.03
2017-08-17T09:28:57.163Z,29.73
2017-08-17T09:31:23.310Z,25.83
2017-08-17T09:33:49.455Z,28.57
2017-08-17T09:36:15.578Z,26.07
2017-08-17T09:38:41.728Z,32.20
2017-08-17T09:41:07.854Z,24.03
2017-08-17T09:43:34.008Z,26.73
2017-08-17T09:46:00.180Z,28.47
2017-08-17T09:48:26.340Z,23.63
2017-08-17T09:50:52.519Z,29.20
2017-08-17T09:53:18.699Z,31.97
2017-08-17T09:55:44.920Z,32.13
2017-08-17T09:58:11.046Z,27.17
2017-08-17T10:00:37.202Z,24.83
2017-08-17T10:03:03.354Z,33.57
2017-08-17T10:05:29.559Z,32.33
2017-08-17T10:07:55.715Z,30.63
2017-08-17T10:10:21.892Z,22.60
2017-08-17T10:12:48.038Z,23.67
2017-08-17T10:15:14.206Z,25.73
2017-08-17T10:17:40.322Z,21.10
2017-08-17T10:20:06.484Z,22.97
2017-08-17T10:22:32.635Z,24.13
2017-08-17T10:24:58.835Z,17.53
2017-08-17T10:27:24.959Z,16.90
2017-08-17T10:29:51.136Z,19.87
2017-08-17T10:32:17.327Z,21.73
2017-08-17T10:34:43.463Z,34.73
2017-08-17T10:37:09.631Z,36.43
2017-08-17T10:39:35.738Z,19.40
2017-08-17T10:42:01.892Z,17.53
2017-08-17T10:44:28.051Z,24.10
2017-08-17T10:46:54.211Z,16.53
2017-08-17T10:49:20.359Z,18.20
2017-08-17T10:51:46.526Z,16.17
2017-08-17T10:54:12.688Z,15.13
2017-08-17T10:56:38.881Z,21.37
2017-08-17T10:59:05.026Z,16.80
2017-08-17T11:01:31.225Z,18.10
2017-08-17T11:03:57.344Z,19.70
2017-08-17T11:06:28.837Z,17.20
2017-08-17T11:08:55.244Z,15.00
2017-08-17T11:11:21.399Z,21.33
2017-08-17T11:13:47.571Z,12.93
2017-08-17T11:16:13.741Z,12.47
2017-08-17T11:18:39.928Z,10.77
2017-08-17T11:21:06.093Z,12.43
2017-08-17T11:23:32.259Z,17.67
2017-08-17T11:25:58.442Z,24.63
2017-08-17T11:28:24.624Z,18.07
2017-08-17T11:30:50.796Z,13.53
2017-08-17T11:33:16.945Z,17.07
2017-08-17T11:35:43.106Z,17.93
2017-08-17T11:38:09.236Z,17.13
2017-08-17T11:40:35.407Z,13.20
2017-08-17T11:43:01.559Z,14.67
2017-08-17T11:45:27.729Z,19.10
2017-08-17T11:47:53.889Z,14.90
2017-08-17T11:50:20.088Z,27.67
2017-08-17T11:52:46.222Z,15.00
2017-08-17T11:55:12.395Z,11.20
2017-08-17T11:57:38.563Z,11.47
2017-08-17T12:00:04.754Z,14.90
2017-08-17T12:02:30.960Z,11.90
2017-08-17T12:04:57.175Z,12.60
2017-08-17T12:07:23.375Z,13.03
2017-08-17T12:09:49.519Z,15.23
2017-08-17T12:12:15.710Z,14.53
2017-08-17T12:14:41.854Z,20.93
2017-08-17T12:17:08.016Z,12.23
2017-08-17T12:19:34.154Z,15.70
2017-08-17T12:22:00.351Z,8.33
2017-08-17T12:24:26.532Z,9.33
2017-08-17T12:26:52.706Z,12.10
2017-08-17T12:29:18.883Z,13.00
2017-08-17T12:31:45.082Z,17.90
2017-08-17T12:34:11.238Z,7.13
2017-08-17T12:36:37.418Z,9.23
2017-08-17T12:39:03.565Z,10.83
2017-08-17T12:41:29.735Z,5.03
2017-08-17T12:43:55.889Z,9.13
2017-08-17T12:46:22.047Z,5.90
2017-08-17T12:48:48.226Z,9.03
2017-08-17T12:51:14.399Z,7.80
2017-08-17T12:53:40.598Z,11.13
2017-08-17T12:56:06.754Z,5.13
2017-08-17T12:58:32.931Z,6.37
2017-08-17T13:00:59.111Z,4.13
2017-08-17T13:03:25.346Z,6.50
2017-08-17T13:05:51.523Z,5.07
2017-08-17T13:08:17.955Z,10.73
2017-08-17T13:10:44.102Z,4.73
2017-08-17T13:13:10.289Z,11.60
2017-08-17T13:15:36.433Z,7.27
2017-08-17T13:18:02.635Z,5.50
2017-08-17T13:20:28.823Z,7.30
2017-08-17T13:22:54.986Z,7.97
2017-08-17T13:25:21.265Z,27.43
2017-08-17T13:27:47.427Z,7.23
2017-08-17T13:30:13.743Z,5.20
2017-08-17T13:32:39.883Z,4.33
2017-08-17T13:35:06.050Z,6.17
2017-08-17T13:37:32.279Z,6.90
2017-08-17T13:39:58.464Z,5.43
2017-08-17T13:42:24.672Z,6.60
2017-08-17T13:44:50.854Z,7.13
2017-08-17T13:47:17.035Z,4.10
2017-08-17T13:49:43.319Z,6.53
2017-08-17T13:52:09.759Z,3.87
2017-08-17T13:54:35.914Z,3.33
2017-08-17T13:57:02.115Z,7.17
2017-08-17T13:59:28.333Z,5.67
2017-08-17T14:01:54.551Z,4.93
2017-08-17T14:04:20.703Z,5.00
2017-08-17T14:06:46.875Z,4.93
2017-08-17T14:09:13.017Z,11.27
2017-08-17T14:11:39.175Z,3.57
2017-08-17T14:14:05.412Z,4.10
2017-08-17T14:16:31.548Z,9.80
2017-08-17T14:18:57.719Z,5.70
2017-08-17T14:21:23.920Z,7.50
2017-08-17T14:23:50.094Z,6.90
2017-08-17T14:26:16.231Z,6.53
2017-08-17T14:28:42.404Z,4.10
2017-08-17T14:31:08.663Z,4.53
2017-08-17T14:33:34.912Z,6.47
2017-08-17T14:36:01.131Z,3.40
2017-08-17T14:38:27.300Z,6.13
2017-08-17T14:40:53.462Z,3.67
2017-08-17T14:43:19.666Z,4.83
2017-08-17T14:45:45.826Z,12.27
2017-08-17T14:48:11.985Z,7.80
2017-08-17T14:50:38.122Z,6.07
2017-08-17T14:53:04.270Z,4.53
2017-08-17T14:55:30.438Z,5.63
2017-08-17T14:57:56.595Z,4.33
2017-08-17T15:00:22.836Z,5.53
2017-08-17T15:02:49.034Z,3.73
2017-08-17T15:05:15.228Z,2.50
2017-08-17T15:07:41.410Z,6.47
2017-08-17T15:10:07.560Z,3.03
2017-08-17T15:12:33.743Z,21.13
2017-08-17T15:15:00.019Z,5.00
2017-08-17T15:17:26.182Z,6.40
2017-08-17T15:19:52.364Z,2.73
2017-08-17T15:22:18.603Z,2.77
2017-08-17T15:24:44.775Z,2.67
2017-08-17T15:27:10.988Z,7.20
2017-08-17T15:29:37.168Z,3.27
2017-08-17T15:32:03.402Z,3.03
2017-08-17T15:34:29.559Z,3.60
2017-08-17T15:36:55.719Z,4.20
2017-08-17T15:39:21.869Z,3.07
2017-08-17T15:41:48.015Z,3.57
2017-08-17T15:44:14.145Z,6.50
2017-08-17T15:46:40.336Z,5.83
2017-08-17T15:49:06.482Z,4.03
2017-08-17T15:51:32.654Z,3.07
2017-08-17T15:53:58.824Z,6.50
2017-08-17T15:56:25.015Z,5.33
2017-08-17T15:58:51.188Z,4.00
2017-08-17T16:01:17.554Z,4.83
2017-08-17T16:03:43.711Z,4.03
2017-08-17T16:06:09.877Z,4.70
2017-08-17T16:08:36.061Z,2.23
2017-08-17T16:11:02.298Z,5.33
2017-08-17T16:13:28.507Z,4.17
2017-08-17T16:15:54.669Z,5.30
2017-08-17T16:18:20.879Z,3.50
2017-08-17T16:20:47.043Z,2.93
2017-08-17T16:23:13.225Z,13.53
2017-08-17T16:25:39.384Z,6.10
2017-08-17T16:28:05.605Z,6.10
2017-08-17T16:30:31.983Z,2.70
2017-08-17T16:32:58.202Z,4.23
2017-08-17T16:35:24.360Z,3.47
2017-08-17T16:37:50.526Z,2.97
2017-08-17T16:40:16.735Z,7.90
2017-08-17T16:42:42.879Z,6.10
2017-08-17T16:45:09.079Z,3.27
2017-08-17T16:47:35.283Z,3.50
2017-08-17T16:50:01.474Z,2.67
2017-08-17T16:52:27.644Z,6.40
2017-08-17T16:54:53.828Z,3.87
2017-08-17T16:57:20.003Z,4.80
2017-08-17T16:59:46.199Z,4.70
2017-08-17T17:02:12.339Z,7.77
2017-08-17T17:04:38.514Z,3.00
2017-08-17T17:07:04.670Z,3.30
2017-08-17T17:09:30.842Z,5.13
2017-08-17T17:11:57.015Z,5.17
2017-08-17T17:14:23.196Z,4.43
2017-08-17T17:16:49.323Z,3.60
2017-08-17T17:19:15.504Z,8.37
2017-08-17T17:21:41.645Z,3.33
2017-08-17T17:24:07.862Z,5.53
2017-08-17T17:26:34.006Z,9.40
2017-08-17T17:29:00.241Z,2.50
2017-08-17T17:31:26.424Z,2.47
2017-08-17T17:33:52.558Z,3.40
2017-08-17T17:36:18.829Z,5.80
2017-08-17T17:38:44.969Z,6.10
2017-08-17T17:41:11.172Z,4.50
2017-08-17T17:43:37.323Z,3.63
2017-08-17T17:46:03.487Z,3.43
2017-08-17T17:48:29.660Z,6.07
2017-08-17T17:50:55.826Z,2.70
2017-08-17T17:53:21.971Z,2.10
2017-08-17T17:55:48.148Z,5.03
2017-08-17T17:58:14.331Z,4.03
2017-08-17T18:00:40.524Z,3.30
2017-08-17T18:03:06.704Z,2.80
2017-08-17T18:05:32.873Z,3.00
2017-08-17T18:07:59.050Z,2.13
2017-08-17T18:10:25.194Z,4.80
2017-08-17T18:12:51.367Z,4.27
2017-08-17T18:15:17.515Z,7.43
2017-08-17T18:17:43.674Z,2.33
2017-08-17T18:20:09.809Z,4.63
2017-08-17T18:22:35.968Z,4.23
2017-08-17T18:25:02.114Z,2.47
2017-08-17T18:27:28.281Z,5.47
2017-08-17T18:29:54.408Z,5.37
2017-08-17T18:32:20.546Z,6.27
2017-08-17T18:34:46.672Z,7.30
2017-08-17T18:37:12.856Z,6.43
2017-08-17T18:39:39.011Z,20.67
2017-08-17T18:42:05.231Z,8.60
2017-08-17T18:44:31.345Z,2.70
2017-08-17T18:46:57.472Z,6.57
2017-08-17T18:49:23.613Z,4.73
2017-08-17T18:51:49.771Z,2.77
2017-08-17T18:54:15.915Z,4.60
2017-08-17T18:56:42.042Z,8.30
2017-08-17T18:59:08.199Z,3.17
2017-08-17T19:01:34.334Z,4.53
2017-08-17T19:04:00.491Z,5.63
2017-08-17T19:06:26.609Z,5.00
2017-08-17T19:08:52.839Z,10.97
2017-08-17T19:11:18.987Z,6.10
2017-08-17T19:13:45.168Z,3.87
2017-08-17T19:16:11.342Z,5.10
2017-08-17T19:18:37.631Z,10.33
2017-08-17T19:21:03.782Z,5.37
2017-08-17T19:23:30.002Z,4.53
2017-08-17T19:25:56.167Z,4.07
2017-08-17T19:28:22.339Z,2.93
2017-08-17T19:30:48.570Z,4.97
2017-08-17T19:33:14.710Z,3.43
2017-08-17T19:35:40.873Z,3.60
2017-08-17T19:38:07.018Z,2.70
2017-08-17T19:40:33.277Z,3.57
2017-08-17T19:42:59.461Z,2.97
2017-08-17T19:45:25.627Z,7.50
2017-08-17T19:47:51.774Z,9.90
2017-08-17T19:50:17.919Z,6.13
2017-08-17T19:52:45.173Z,8.90
2017-08-17T19:55:11.383Z,3.87
2017-08-17T19:57:37.523Z,3.67
2017-08-17T20:00:03.695Z,4.57
2017-08-17T20:02:29.841Z,6.20
2017-08-17T20:04:55.985Z,8.10
2017-08-17T20:07:22.140Z,6.93
2017-08-17T20:09:48.262Z,3.10
2017-08-17T20:12:14.451Z,9.00
2017-08-17T20:14:40.577Z,2.70
2017-08-17T20:17:06.768Z,6.63
2017-08-17T20:19:32.905Z,4.90
2017-08-17T20:21:59.055Z,7.23
2017-08-17T20:24:25.174Z,6.83
2017-08-17T20:26:51.341Z,4.93
2017-08-17T20:29:17.482Z,4.43
2017-08-17T20:31:43.635Z,3.80
2017-08-17T20:34:09.770Z,4.77
2017-08-17T20:36:35.902Z,3.80
2017-08-17T20:39:02.075Z,5.63
2017-08-17T20:41:28.210Z,2.93
2017-08-17T20:43:54.353Z,17.13
2017-08-17T20:46:20.488Z,3.50
2017-08-17T20:48:46.625Z,3.60
2017-08-17T20:51:12.807Z,7.47
2017-08-17T20:53:38.964Z,4.33
2017-08-17T20:56:05.110Z,3.93
2017-08-17T20:58:31.276Z,9.07
2017-08-17T21:00:57.458Z,2.20
2017-08-17T21:03:23.663Z,4.90
2017-08-17T21:06:40.788Z,2.87
2017-08-17T21:09:07.679Z,4.30
2017-08-17T21:11:33.811Z,3.20
2017-08-17T21:13:59.995Z,2.80
2017-08-17T21:16:26.150Z,7.83
2017-08-17T21:18:53.038Z,4.43
2017-08-17T21:21:19.188Z,4.80
2017-08-17T21:23:46.106Z,5.10
2017-08-17T21:26:12.227Z,4.40
2017-08-17T21:28:38.360Z,4.97
2017-08-17T21:31:04.522Z,2.83
2017-08-17T21:33:30.650Z,14.80
2017-08-17T21:35:56.791Z,9.40
2017-08-17T21:38:23.662Z,5.10
2017-08-17T21:40:49.790Z,5.30
2017-08-17T21:43:15.910Z,9.00
2017-08-17T21:45:42.046Z,5.73
2017-08-17T21:48:08.906Z,58.97
2017-08-17T21:50:35.063Z,183.40
2017-08-17T21:53:01.175Z,37.53
2017-08-17T21:55:27.315Z,27.23
2017-08-17T21:57:53.445Z,11.03
2017-08-17T22:00:19.643Z,5.10
2017-08-17T22:02:45.754Z,7.83
2017-08-17T22:05:11.893Z,8.37
2017-08-17T22:07:38.043Z,3.43
2017-08-17T22:10:04.172Z,15.63
2017-08-17T22:12:31.078Z,7.50
2017-08-17T22:14:57.207Z,7.23
2017-08-17T22:17:23.346Z,4.93
2017-08-17T22:19:49.470Z,4.70
2017-08-17T22:22:15.602Z,3.80
2017-08-17T22:24:41.722Z,4.93
2017-08-17T22:27:07.893Z,4.53
2017-08-17T22:29:34.045Z,4.30
2017-08-17T22:32:00.235Z,8.17
2017-08-17T22:34:26.354Z,5.30
2017-08-17T22:36:52.494Z,7.77
2017-08-17T22:39:18.614Z,3.70
2017-08-17T22:41:44.740Z,5.57
2017-08-17T22:44:11.615Z,5.87
2017-08-17T22:46:37.738Z,5.10
2017-08-17T22:49:03.875Z,11.80
2017-08-17T22:51:29.987Z,8.03
2017-08-17T22:53:56.131Z,5.30
2017-08-17T22:56:22.258Z,4.87
2017-08-17T22:58:48.402Z,10.67
2017-08-17T23:01:14.543Z,5.07
2017-08-17T23:03:41.426Z,8.23
2017-08-17T23:06:07.550Z,6.10
2017-08-17T23:08:33.687Z,12.33
2017-08-17T23:10:59.821Z,4.57
2017-08-17T23:13:26.720Z,8.23
2017-08-17T23:15:52.883Z,6.20
2017-08-17T23:18:19.053Z,6.67
2017-08-17T23:20:45.190Z,6.17
2017-08-17T23:23:11.311Z,7.83
2017-08-17T23:25:37.461Z,11.03
2017-08-17T23:28:03.586Z,10.87
2017-08-17T23:30:29.735Z,14.33
2017-08-17T23:32:56.750Z,4.50
2017-08-17T23:35:22.894Z,7.53
2017-08-17T23:37:49.010Z,9.87
2017-08-17T23:40:15.162Z,8.10
2017-08-17T23:42:41.294Z,6.00
2017-08-17T23:45:08.171Z,10.10
2017-08-17T23:47:34.303Z,13.33
2017-08-17T23:50:00.450Z,7.80
2017-08-17T23:52:27.310Z,6.20
2017-08-17T23:54:53.449Z,10.80
2017-08-17T23:57:19.613Z,8.97
2017-08-17T23:59:45.754Z,11.77
